BGGH

Godthaab / Nuuk Airport

Nuuk, Greenland
METAR BGGH 220350Z AUTO 17004KT 2400NDV -SN OVC013/// M10/M12 Q1009 RESN
Observed Flight Rules
Jan-22 @ 03:50 UTC (an hour ago)
Wind Clouds Conditions
170° at 4 knots
  • Overcast at 1,300' AGL
  • Light Snow
Temperatures Readings
Current -10°C / 14°F
Dewpoint -12°C / 10°F
Humidity 85%
Altimeter 29.79" Hg
Pressure 1008.92 hPa
Elevation 70
METAR BGGH 220350Z AUTO 17004KT 2400NDV -SN OVC013/// M10/M12 Q1009 RESN
Observed Flight Rules
Jan-22 @ 03:50 UTC
(an hour ago)
Wind
170° at 4 knots
Clouds
  • Overcast at 1,300' AGL
Conditions
  • Light Snow
Temperature Dewpoint
-10°C / 14°F -12°C / 10°F
Humidity Altimeter Pressure
85% 29.79" Hg 1008.92 hPa